ROMMA est une association bénévole à but non lucratif. Votre soutien est indispensable : ADHERER à ROMMA ou FAIRE un DON

Taninges - (74, Haute-Savoie)

Vallée du Giffre (635 m)   Longitude: 06° 35' 38" E   Latitude: 46° 06' 21" N Station romma n°98
 

Détail journalier du     <<     >>

Température Precipitation Humidité Pression Vent Dir Rafale Dir. rafale Ensol.
Heure (°C) (mm) (%) (hPa) (km/h) (km/h) (min)
01:00 0.2090102005SE0
02:00 -0.8091102002SSE0
03:00 -1.4092101902SSE0
04:00 -2.0093101906SO0
05:00 -2.209410191S5E0
06:00 -2.4094101903SO0
07:00 -1.809510191SSE5SO30
08:00 -0.1095101903S30
09:00 4.008710192SE6ESE60
10:00 7.306910172E8O50
11:00 10.106110177OSO21OSO60
12:00 11.905110168OSO19SO60
13:00 13.4054101610OSO21OSO60
14:00 14.6053101513SO26OSO60
15:00 16.1050101410OSO21O60
16:00 16.404510149O19OSO60
17:00 17.004010137OSO18SO60
18:00 17.203810135OSO16OSO50
19:00 16.903510124SO10OSO45
20:00 15.404510123SO6OSO25
21:00 12.405610131ONO6E0
22:00 11.206610131ESE6E0
23:00 10.506510122SO8NNE0
minuit 10.606710122ENE8ESE0

Graphique du 07-05-2019

 

Serveur OMMA